Hlavní strana
METAR-TAF:

METAR-TAF

Letiště :

Decatur, Illinois, Spojené státy americké

zeměpisná šířka: 39-50-04N, zeměpisná délka: 088-51-56W, výška: 208 m

Aktuální stav počasí

Zpráva byla vytvořena před 13 minutami, v 03:54 UTC
Jihovýchodní vítr 5 kt
Teplota 7°C
Vlhkost vzduchu 70%
Tlak 1019 hPa
Viditelnost: 16.1 km
Jasno

METAR: KDEC 020354Z AUTO 13005KT 10SM CLR 07/02 A3009 RMK AO2 SLP190 T00670017

Čas: 23:07 (04:07 UTC)

Předpověď počasí

Zpráva byla vytvořena před 4 hodinami a 32 minutami, v 23:35 UTC
Předpověď platná od 02 v 00 UTC do 02 v 24 UTC
vítr z různých směrů 5 kt
Viditelnost: 10 km
Polojasno ve výšce 25000 ft
Od 02 v 1400 UTC
Jihovýchodní vítr 6 kt
Viditelnost: 10 km
Oblačno až skoro zataženo ve výšce 25000 ft
Od 02 v 2100 UTC
Jihovýchodní vítr 10 kt
Viditelnost: 10 km
Polojasno ve výšce 15000 ft
Oblačno až skoro zataženo ve výšce 25000 ft

TAF: KDEC 012335Z 0200/0224 VRB05KT P6SM SCT250 FM021400 13006KT P6SM BKN250 FM022100 14010KT P6SM SCT150 BKN250

Stav a předpovědi počasí z více než 4 000 letišť (zprávy METAR a TAF).

Červené a žluté tečky na mapě představují dostupné meteorologické stanice.

Když kurzor umístíte na tečku, zobrazí se název stanice.

Pak kliknutím zobrazíte stav a předpověď počasí.

Chcete-li změnit mapu, kliknutím na zelené tlačítko se znaménkem +mapu přiblížíte, kliknutím na zelené tlačítko se znaménkem – mapu oddálíte a kliknutím na zelené šipky přejdete na sousední mapy.


METAR-TAF: